createdAt,value
2022-11-27T00:02:05.896Z,101746.81
2022-11-27T00:07:07.689Z,101747.00
2022-11-27T00:12:09.404Z,101742.50
2022-11-27T00:17:11.030Z,101739.81
2022-11-27T00:22:12.633Z,101733.50
2022-11-27T00:27:14.323Z,101720.22
2022-11-27T00:32:15.986Z,101711.41
2022-11-27T00:37:17.768Z,101718.75
2022-11-27T00:42:19.395Z,101726.94
2022-11-27T00:47:21.065Z,101719.13
2022-11-27T00:52:22.694Z,101722.75
2022-11-27T00:57:25.244Z,101724.41
2022-11-27T01:02:26.933Z,101717.22
2022-11-27T01:07:28.597Z,101718.03
2022-11-27T01:12:30.342Z,101718.91
2022-11-27T01:17:32.045Z,101710.06
2022-11-27T01:22:33.793Z,101698.59
2022-11-27T01:27:35.422Z,101687.19
2022-11-27T01:32:37.397Z,101681.38
2022-11-27T01:37:39.050Z,101678.19
2022-11-27T01:42:40.749Z,101668.44
2022-11-27T01:47:48.368Z,101661.44
2022-11-27T01:52:53.341Z,101652.97
2022-11-27T01:57:59.384Z,101651.41
2022-11-27T02:03:01.132Z,101635.19
2022-11-27T02:08:10.499Z,101636.50
2022-11-27T02:13:17.855Z,101624.91
2022-11-27T02:18:33.157Z,101622.06
2022-11-27T02:23:49.950Z,101614.97
2022-11-27T02:28:59.621Z,101618.75
2022-11-27T02:34:11.888Z,101623.88
2022-11-27T02:39:18.643Z,101618.13
2022-11-27T02:44:20.868Z,101630.31
2022-11-27T02:49:22.549Z,101619.25
2022-11-27T02:54:27.571Z,101624.38
2022-11-27T02:59:31.668Z,101629.22
2022-11-27T03:04:39.367Z,101635.75
2022-11-27T03:09:47.058Z,101636.03
2022-11-27T03:14:48.875Z,101639.16
2022-11-27T03:19:56.801Z,101642.69
2022-11-27T03:24:59.077Z,101638.00
2022-11-27T03:30:02.156Z,101635.19
2022-11-27T03:35:05.403Z,101631.44
2022-11-27T03:40:07.880Z,101639.94
2022-11-27T03:45:17.940Z,101628.69
2022-11-27T03:50:37.309Z,101615.72
2022-11-27T03:55:55.839Z,101617.59
2022-11-27T04:00:59.294Z,101615.38
2022-11-27T04:06:00.962Z,101610.84
2022-11-27T04:11:02.631Z,101607.88
2022-11-27T04:16:04.875Z,101620.78
2022-11-27T04:21:06.629Z,101615.97
2022-11-27T04:26:08.388Z,101611.16
2022-11-27T04:31:10.129Z,101617.56
2022-11-27T04:36:12.151Z,101625.84
2022-11-27T04:41:13.885Z,101618.41
2022-11-27T04:46:15.605Z,101617.09
2022-11-27T04:51:17.255Z,101622.03
2022-11-27T04:56:18.930Z,101608.84
2022-11-27T05:01:20.806Z,101605.50
2022-11-27T05:06:22.811Z,101611.69
2022-11-27T05:11:24.516Z,101608.22
2022-11-27T05:16:26.272Z,101608.03
2022-11-27T05:21:28.029Z,101614.69
2022-11-27T05:26:29.753Z,101631.59
2022-11-27T05:31:31.486Z,101639.84
2022-11-27T05:36:33.891Z,101635.03
2022-11-27T05:41:37.473Z,101640.47
2022-11-27T05:46:39.397Z,101627.16
2022-11-27T05:51:44.131Z,101627.16
2022-11-27T05:56:48.117Z,101634.28
2022-11-27T06:01:49.831Z,101629.22
2022-11-27T06:06:51.560Z,101620.38
2022-11-27T06:11:53.312Z,101616.09
2022-11-27T06:16:55.072Z,101621.59
2022-11-27T06:21:56.924Z,101614.00
2022-11-27T06:26:58.544Z,101610.00
2022-11-27T06:32:00.282Z,101615.94
2022-11-27T06:37:02.427Z,101611.84
2022-11-27T06:42:04.177Z,101605.97
2022-11-27T06:47:05.955Z,101599.28
2022-11-27T06:52:07.663Z,101590.06
2022-11-27T06:57:09.338Z,101582.25
2022-11-27T07:02:14.138Z,101582.56
2022-11-27T07:07:16.203Z,101582.88
2022-11-27T07:12:17.929Z,101594.00
2022-11-27T07:17:19.652Z,101583.56
2022-11-27T07:22:21.303Z,101603.75
2022-11-27T07:27:22.939Z,101600.69
2022-11-27T07:32:24.608Z,101601.88
2022-11-27T07:37:26.562Z,101597.53
2022-11-27T07:42:39.219Z,101594.69
2022-11-27T07:47:41.271Z,101596.66
2022-11-27T07:52:42.931Z,101582.91
2022-11-27T07:57:44.654Z,101573.25
2022-11-27T08:02:46.321Z,101571.09
2022-11-27T08:07:48.201Z,101567.19
2022-11-27T08:12:49.966Z,101554.16
2022-11-27T08:17:51.646Z,101551.19
2022-11-27T08:22:56.940Z,101544.56
2022-11-27T08:28:03.909Z,101540.97
2022-11-27T08:33:05.542Z,101537.13
2022-11-27T08:38:07.375Z,101543.88
2022-11-27T08:43:09.002Z,101539.97
2022-11-27T08:48:10.951Z,101540.34
2022-11-27T08:53:12.757Z,101537.53
2022-11-27T08:58:14.733Z,101537.56
2022-11-27T09:03:16.357Z,101543.16
2022-11-27T09:08:21.371Z,101552.06
2022-11-27T09:13:23.716Z,101540.59
2022-11-27T09:18:25.310Z,101532.28
2022-11-27T09:23:27.271Z,101528.09
2022-11-27T09:28:31.537Z,101516.88
2022-11-27T09:33:35.750Z,101508.72
2022-11-27T09:38:37.894Z,101485.34
2022-11-27T09:43:52.041Z,101487.38
2022-11-27T09:48:53.934Z,101480.72
2022-11-27T09:54:01.004Z,101461.63
2022-11-27T09:59:02.732Z,101454.00
2022-11-27T10:04:04.559Z,101449.03
2022-11-27T10:09:33.614Z,101430.66
2022-11-27T10:14:38.351Z,101431.81
2022-11-27T10:19:46.659Z,101419.34
2022-11-27T10:25:07.268Z,101425.75
2022-11-27T10:30:17.255Z,101413.47
2022-11-27T10:35:27.975Z,101407.84
2022-11-27T10:40:36.809Z,101400.84
2022-11-27T10:45:57.110Z,101404.53
2022-11-27T10:51:00.342Z,101389.78
2022-11-27T10:56:26.126Z,101388.41
2022-11-27T11:01:30.695Z,101370.44
2022-11-27T11:06:33.072Z,101371.88
2022-11-27T11:11:34.713Z,101376.09
2022-11-27T11:16:42.747Z,101371.13
2022-11-27T11:21:45.127Z,101361.47
2022-11-27T11:26:49.861Z,101366.28
2022-11-27T11:31:52.029Z,101365.88
2022-11-27T11:37:05.650Z,101374.16
2022-11-27T11:42:20.959Z,101377.19
2022-11-27T11:47:25.280Z,101356.94
2022-11-27T11:52:36.064Z,101356.38
2022-11-27T11:57:54.032Z,101351.56
2022-11-27T12:03:11.038Z,101343.28
2022-11-27T12:08:21.602Z,101343.75
2022-11-27T12:13:33.197Z,101334.72
2022-11-27T12:18:57.961Z,101335.00
2022-11-27T12:24:21.753Z,101337.63
2022-11-27T12:29:48.007Z,101328.28
2022-11-27T12:35:07.801Z,101305.19
2022-11-27T12:40:24.587Z,101301.09
2022-11-27T12:45:42.446Z,101291.31
2022-11-27T12:51:07.310Z,101284.53
2022-11-27T12:56:27.169Z,101287.63
2022-11-27T13:01:33.205Z,101269.81
2022-11-27T13:06:43.459Z,101261.84
2022-11-27T13:11:45.421Z,101253.78
2022-11-27T13:16:57.044Z,101247.06
2022-11-27T13:22:00.003Z,101233.50
2022-11-27T13:27:04.748Z,101224.16
2022-11-27T13:32:07.678Z,101216.09
2022-11-27T13:37:09.805Z,101202.03
2022-11-27T13:42:11.386Z,101192.53
2022-11-27T13:47:15.882Z,101191.56
2022-11-27T13:52:19.505Z,101185.56
2022-11-27T13:57:22.101Z,101185.47
2022-11-27T14:02:24.146Z,101177.84
2022-11-27T14:07:35.703Z,101188.47
2022-11-27T14:12:37.570Z,101183.88
2022-11-27T14:17:46.825Z,101184.88
2022-11-27T14:23:14.771Z,101176.84
2022-11-27T14:28:21.951Z,101180.38
2022-11-27T14:33:25.957Z,101165.88
2022-11-27T14:38:29.445Z,101165.03
2022-11-27T14:43:31.358Z,101163.31
2022-11-27T14:48:48.231Z,101164.47
2022-11-27T14:53:52.510Z,101150.75
2022-11-27T14:58:55.647Z,101154.47
2022-11-27T15:04:03.668Z,101139.75
2022-11-27T15:09:31.929Z,101144.16
2022-11-27T15:14:28.594Z,101150.44
2022-11-27T15:19:35.922Z,101133.56
2022-11-27T15:24:39.682Z,101131.22
2022-11-27T15:29:44.738Z,101129.66
2022-11-27T15:34:49.000Z,101141.16
2022-11-27T15:39:52.687Z,101136.00
2022-11-27T15:44:58.182Z,101132.31
2022-11-27T15:50:00.678Z,101111.03
2022-11-27T15:55:02.354Z,101114.19
2022-11-27T16:00:04.363Z,101106.81
2022-11-27T16:05:13.088Z,101095.75
2022-11-27T16:10:14.747Z,101091.84
2022-11-27T16:15:16.886Z,101089.25
2022-11-27T16:20:18.646Z,101087.53
2022-11-27T16:25:20.361Z,101075.31
2022-11-27T16:30:22.022Z,101089.25
2022-11-27T16:35:24.932Z,101077.28
2022-11-27T16:40:27.390Z,101079.19
2022-11-27T16:45:29.456Z,101083.38
2022-11-27T16:50:31.427Z,101086.41
2022-11-27T16:55:33.281Z,101077.34
2022-11-27T17:00:35.014Z,101068.66
2022-11-27T17:05:38.093Z,101067.97
2022-11-27T17:10:39.793Z,101060.31
2022-11-27T17:15:41.478Z,101048.84
2022-11-27T17:20:43.899Z,101044.56
2022-11-27T17:25:45.743Z,101039.75
2022-11-27T17:30:47.428Z,101034.06
2022-11-27T17:35:49.613Z,101023.66
2022-11-27T17:40:52.286Z,101017.28
2022-11-27T17:45:53.992Z,101004.78
2022-11-27T17:50:55.648Z,101010.66
2022-11-27T17:56:02.420Z,100999.59
2022-11-27T18:01:06.453Z,100992.81
2022-11-27T18:06:08.427Z,100987.47
2022-11-27T18:11:13.376Z,100983.94
2022-11-27T18:16:16.845Z,100973.38
2022-11-27T18:21:19.751Z,100972.41
2022-11-27T18:26:26.843Z,100951.06
2022-11-27T18:31:39.925Z,100940.22
2022-11-27T18:36:42.802Z,100925.44
2022-11-27T18:41:44.461Z,100929.91
2022-11-27T18:46:46.722Z,100914.66
2022-11-27T18:51:53.088Z,100929.81
2022-11-27T18:56:55.141Z,100928.00
2022-11-27T19:01:58.032Z,100932.41
2022-11-27T19:06:59.848Z,100927.63
2022-11-27T19:12:02.420Z,100930.13
2022-11-27T19:17:04.393Z,100932.78
2022-11-27T19:22:07.097Z,100927.34
2022-11-27T19:27:08.867Z,100916.69
2022-11-27T19:32:10.731Z,100921.16
2022-11-27T19:37:12.528Z,100923.91
2022-11-27T19:42:14.236Z,100923.06
2022-11-27T19:47:16.354Z,100916.50
2022-11-27T19:52:19.064Z,100911.44
2022-11-27T19:57:20.898Z,100910.19
2022-11-27T20:02:22.749Z,100905.06
2022-11-27T20:07:24.543Z,100901.63
2022-11-27T20:12:26.365Z,100890.09
2022-11-27T20:17:28.094Z,100879.88
2022-11-27T20:22:29.776Z,100875.78
2022-11-27T20:27:31.817Z,100872.94
2022-11-27T20:32:33.668Z,100870.06
2022-11-27T20:37:35.553Z,100859.38
2022-11-27T20:42:38.414Z,100854.25
2022-11-27T20:47:40.110Z,100863.97
2022-11-27T20:52:42.160Z,100856.91
2022-11-27T20:57:43.913Z,100855.28
2022-11-27T21:02:45.673Z,100842.81
2022-11-27T21:07:47.939Z,100847.94
2022-11-27T21:12:49.719Z,100836.59
2022-11-27T21:17:51.475Z,100842.03
2022-11-27T21:22:53.206Z,100830.91
2022-11-27T21:27:57.923Z,100826.22
2022-11-27T21:32:59.736Z,100823.66
2022-11-27T21:38:01.680Z,100819.38
2022-11-27T21:43:03.314Z,100810.31
2022-11-27T21:48:07.020Z,100792.00
2022-11-27T21:53:11.991Z,100793.13
2022-11-27T21:58:13.788Z,100790.75
2022-11-27T22:03:15.774Z,100780.19
2022-11-27T22:08:17.579Z,100771.13
2022-11-27T22:13:19.416Z,100769.59
2022-11-27T22:18:21.076Z,100764.94
2022-11-27T22:23:24.007Z,100763.03
2022-11-27T22:28:25.696Z,100763.97
2022-11-27T22:33:27.955Z,100752.44
2022-11-27T22:38:29.699Z,100750.53
2022-11-27T22:43:34.671Z,100734.25
2022-11-27T22:48:36.289Z,100729.97
2022-11-27T22:53:38.266Z,100720.91
2022-11-27T22:58:41.780Z,100721.00
2022-11-27T23:03:44.082Z,100709.38
2022-11-27T23:08:46.658Z,100711.09
2022-11-27T23:13:50.020Z,100712.91
2022-11-27T23:18:51.871Z,100713.84
2022-11-27T23:23:53.627Z,100705.38
2022-11-27T23:28:55.272Z,100687.97
2022-11-27T23:33:56.932Z,100688.16
2022-11-27T23:39:03.389Z,100699.50
2022-11-27T23:44:05.152Z,100696.63
2022-11-27T23:49:06.940Z,100698.72
2022-11-27T23:54:10.363Z,100687.88
2022-11-27T23:59:12.054Z,100687.66
